createdAt,value
2016-07-25T00:00:41.618Z,69.92
2016-07-25T00:01:41.607Z,69.72
2016-07-25T00:02:41.602Z,69.72
2016-07-25T00:03:41.573Z,69.82
2016-07-25T00:04:41.571Z,69.82
2016-07-25T00:05:41.554Z,70.1
2016-07-25T00:06:40.828Z,69.82
2016-07-25T00:07:41.520Z,70.1
2016-07-25T00:08:40.793Z,70.3
2016-07-25T00:09:41.487Z,70.2
2016-07-25T00:10:41.505Z,70.01
2016-07-25T00:11:41.466Z,69.92
2016-07-25T00:12:41.480Z,69.72
2016-07-25T00:13:41.441Z,69.43
2016-07-25T00:14:41.423Z,69.62
2016-07-25T00:15:41.399Z,69.92
2016-07-25T00:16:41.392Z,69.82
2016-07-25T00:17:41.374Z,70.68
2016-07-25T00:18:41.362Z,70.5
2016-07-25T00:19:41.345Z,70.4
2016-07-25T00:20:40.623Z,70.2
2016-07-25T00:21:41.319Z,70.4
2016-07-25T00:22:41.306Z,70.59
2016-07-25T00:23:41.291Z,70.4
2016-07-25T00:24:41.273Z,70.4
2016-07-25T00:25:41.262Z,70.4
2016-07-25T00:26:40.534Z,70.98
2016-07-25T00:27:41.235Z,70.59
2016-07-25T00:28:41.218Z,70.2
2016-07-25T00:29:41.204Z,69.62
2016-07-25T00:30:41.191Z,69.72
2016-07-25T00:31:41.183Z,69.82
2016-07-25T00:32:41.165Z,70.59
2016-07-25T00:33:41.140Z,70.2
2016-07-25T00:34:41.129Z,70.59
2016-07-25T00:35:41.111Z,70.4
2016-07-25T00:36:41.101Z,70.78
2016-07-25T00:37:41.086Z,70.68
2016-07-25T00:38:41.070Z,70.68
2016-07-25T00:39:41.063Z,70.78
2016-07-25T00:40:41.049Z,70.59
2016-07-25T00:41:41.030Z,70.98
2016-07-25T00:42:41.017Z,70.59
2016-07-25T00:43:40.998Z,70.5
2016-07-25T00:44:40.984Z,71.04
2016-07-25T00:45:40.974Z,71.33
2016-07-25T00:46:40.958Z,71.36
2016-07-25T00:47:40.944Z,71.91
2016-07-25T00:48:40.932Z,72.39
2016-07-25T00:49:40.919Z,72.88
2016-07-25T00:50:40.902Z,72.74
2016-07-25T00:51:40.906Z,72.64
2016-07-25T00:52:40.873Z,72.78
2016-07-25T00:53:40.858Z,72.78
2016-07-25T00:54:40.841Z,72.78
2016-07-25T00:55:40.829Z,72.78
2016-07-25T00:56:40.811Z,72.58
2016-07-25T00:57:40.805Z,72.88
2016-07-25T00:58:40.805Z,72.84
2016-07-25T00:59:40.762Z,73.52
2016-07-25T01:00:40.762Z,73.61
2016-07-25T01:01:40.739Z,73.32
2016-07-25T01:02:40.731Z,72.84
2016-07-25T01:03:40.713Z,73.42
2016-07-25T01:04:40.703Z,73.52
2016-07-25T01:05:40.681Z,73.46
2016-07-25T01:06:40.667Z,73.52
2016-07-25T01:07:40.654Z,73.74
2016-07-25T01:08:39.938Z,73.52
2016-07-25T01:09:40.625Z,73.71
2016-07-25T01:10:40.615Z,73.61
2016-07-25T01:11:40.596Z,73.71
2016-07-25T01:12:40.587Z,74.1
2016-07-25T01:13:40.570Z,73.52
2016-07-25T01:14:40.554Z,73.84
2016-07-25T01:15:40.539Z,74.1
2016-07-25T01:16:40.523Z,74
2016-07-25T01:17:40.510Z,74.38
2016-07-25T01:18:40.492Z,74.48
2016-07-25T01:19:40.477Z,74.38
2016-07-25T01:20:40.464Z,74.29
2016-07-25T01:21:40.448Z,74.48
2016-07-25T01:22:40.436Z,74.29
2016-07-25T01:23:40.421Z,74.1
2016-07-25T01:24:40.405Z,74.29
2016-07-25T01:25:40.391Z,73.9
2016-07-25T01:26:40.390Z,73.8
2016-07-25T01:27:40.361Z,74.38
2016-07-25T01:28:40.347Z,74.58
2016-07-25T01:29:40.331Z,74.1
2016-07-25T01:30:40.319Z,74.38
2016-07-25T01:31:40.308Z,73.9
2016-07-25T01:32:40.290Z,73.71
2016-07-25T01:33:40.274Z,74.1
2016-07-25T01:34:40.263Z,74.04
2016-07-25T01:35:40.248Z,74.19
2016-07-25T01:36:40.232Z,74.1
2016-07-25T01:37:40.224Z,74.38
2016-07-25T01:38:40.204Z,74.58
2016-07-25T01:39:39.478Z,74.48
2016-07-25T01:40:40.176Z,74.1
2016-07-25T01:41:40.159Z,74.87
2016-07-25T01:42:40.145Z,74
2016-07-25T01:43:40.130Z,75.06
2016-07-25T01:44:40.115Z,74.77
2016-07-25T01:45:40.105Z,74.68
2016-07-25T01:46:40.082Z,74.38
2016-07-25T01:47:40.070Z,74
2016-07-25T01:48:40.057Z,74.19
2016-07-25T01:49:40.045Z,74.48
2016-07-25T01:50:40.029Z,74.77
2016-07-25T01:51:40.017Z,74.68
2016-07-25T01:52:39.996Z,74.68
2016-07-25T01:53:39.985Z,74.96
2016-07-25T01:54:39.972Z,74.96
2016-07-25T01:55:39.959Z,75.35
2016-07-25T01:56:39.230Z,74.87
2016-07-25T01:57:39.927Z,74.29
2016-07-25T01:58:39.907Z,74.29
2016-07-25T01:59:39.894Z,74.19
2016-07-25T02:00:39.883Z,74
2016-07-25T02:01:39.865Z,74.29
2016-07-25T02:02:39.860Z,74.19
2016-07-25T02:03:39.840Z,74.48
2016-07-25T02:04:39.823Z,74.1
2016-07-25T02:05:39.805Z,74.29
2016-07-25T02:06:39.793Z,74
2016-07-25T02:07:39.780Z,73.71
2016-07-25T02:08:39.765Z,74.1
2016-07-25T02:09:39.759Z,74.1
2016-07-25T02:10:39.733Z,73.42
2016-07-25T02:11:39.720Z,74
2016-07-25T02:12:39.704Z,74.1
2016-07-25T02:13:39.687Z,74
2016-07-25T02:14:39.673Z,74.1
2016-07-25T02:15:39.660Z,73.71
2016-07-25T02:16:39.644Z,73.61
2016-07-25T02:17:38.924Z,72.94
2016-07-25T02:18:39.621Z,72.94
2016-07-25T02:19:39.601Z,73.03
2016-07-25T02:20:39.592Z,74
2016-07-25T02:21:39.573Z,73.52
2016-07-25T02:22:39.561Z,73.52
2016-07-25T02:23:39.544Z,73.71
2016-07-25T02:24:39.531Z,73.32
2016-07-25T02:25:39.516Z,73.71
2016-07-25T02:26:39.501Z,73.42
2016-07-25T02:27:39.497Z,73.61
2016-07-25T02:28:39.476Z,73.61
2016-07-25T02:29:39.457Z,73.42
2016-07-25T02:30:39.440Z,73.22
2016-07-25T02:31:39.425Z,73.8
2016-07-25T02:32:39.414Z,73.32
2016-07-25T02:33:39.395Z,73.9
2016-07-25T02:34:39.388Z,74
2016-07-25T02:35:39.363Z,74.48
2016-07-25T02:36:39.356Z,74.48
2016-07-25T02:37:39.341Z,74.16
2016-07-25T02:38:39.326Z,74.1
2016-07-25T02:39:39.307Z,73.8
2016-07-25T02:40:39.298Z,73.52
2016-07-25T02:41:39.276Z,73.13
2016-07-25T02:42:39.275Z,72.88
2016-07-25T02:43:39.251Z,73.36
2016-07-25T02:44:39.237Z,73.26
2016-07-25T02:45:39.223Z,73.61
2016-07-25T02:46:39.210Z,74.58
2016-07-25T02:47:39.191Z,74.19
2016-07-25T02:48:39.182Z,73.8
2016-07-25T02:49:39.162Z,74
2016-07-25T02:50:39.149Z,74.87
2016-07-25T02:51:39.132Z,74.58
2016-07-25T02:52:38.412Z,74.68
2016-07-25T02:53:39.102Z,74.77
2016-07-25T02:54:39.092Z,74.29
2016-07-25T02:55:39.073Z,74.19
2016-07-25T02:56:39.063Z,74
2016-07-25T02:57:39.044Z,73.22
2016-07-25T02:58:39.043Z,73.9
2016-07-25T02:59:39.016Z,74
2016-07-25T03:00:39.002Z,73.94
2016-07-25T03:01:38.984Z,74.1
2016-07-25T03:02:38.974Z,74.68
2016-07-25T03:03:38.958Z,75.16
2016-07-25T03:04:38.944Z,75.26
2016-07-25T03:05:38.925Z,75.64
2016-07-25T03:06:38.916Z,75.6
2016-07-25T03:07:38.898Z,75.22
2016-07-25T03:08:38.881Z,75.45
2016-07-25T03:09:38.872Z,75.26
2016-07-25T03:10:38.855Z,75.6
2016-07-25T03:11:38.834Z,75.31
2016-07-25T03:12:38.823Z,74.58
2016-07-25T03:13:38.806Z,74.38
2016-07-25T03:14:38.792Z,74.29
2016-07-25T03:15:38.783Z,73.71
2016-07-25T03:16:38.764Z,74.38
2016-07-25T03:17:38.752Z,74.29
2016-07-25T03:18:38.733Z,74.38
2016-07-25T03:19:38.724Z,74.58
2016-07-25T03:20:38.699Z,75.35
2016-07-25T03:21:38.695Z,75.64
2016-07-25T03:22:38.684Z,75.93
2016-07-25T03:23:38.659Z,75.99
2016-07-25T03:24:38.647Z,75.79
2016-07-25T03:25:38.638Z,76.37
2016-07-25T03:26:38.619Z,76.18
2016-07-25T03:27:38.605Z,75.89
2016-07-25T03:28:37.879Z,76.18
2016-07-25T03:29:38.572Z,76.57
2016-07-25T03:30:37.848Z,75.89
2016-07-25T03:31:38.545Z,76.09
2016-07-25T03:32:38.538Z,76.09
2016-07-25T03:33:38.512Z,76.22
2016-07-25T03:34:38.508Z,76.09
2016-07-25T03:35:38.480Z,76.09
2016-07-25T03:36:38.471Z,76.42
2016-07-25T03:37:38.463Z,76.47
2016-07-25T03:38:37.730Z,75.99
2016-07-25T03:39:37.715Z,76.09
2016-07-25T03:40:38.407Z,75.84
2016-07-25T03:41:38.402Z,75.89
2016-07-25T03:42:38.379Z,75.89
2016-07-25T03:43:38.370Z,75.93
2016-07-25T03:44:38.349Z,75.99
2016-07-25T03:45:38.341Z,76.18
2016-07-25T03:46:38.314Z,75.79
2016-07-25T03:47:38.309Z,75.99
2016-07-25T03:48:38.284Z,75.31
2016-07-25T03:49:38.279Z,75.74
2016-07-25T03:50:38.262Z,75.79
2016-07-25T03:51:38.250Z,75.89
2016-07-25T03:52:38.232Z,76.51
2016-07-25T03:53:37.504Z,75.99
2016-07-25T03:54:38.203Z,76.09
2016-07-25T03:55:37.490Z,75.79
2016-07-25T03:56:38.175Z,76.28
2016-07-25T03:57:38.161Z,75.89
2016-07-25T03:58:37.431Z,76.09
2016-07-25T03:59:38.129Z,76.32
2016-07-25T04:00:38.118Z,76.37
2016-07-25T04:01:38.102Z,76.86
2016-07-25T04:02:38.087Z,76.57
2016-07-25T04:03:37.354Z,76.57
2016-07-25T04:04:38.052Z,76.28
2016-07-25T04:05:38.042Z,76.57
2016-07-25T04:06:38.021Z,76.28
2016-07-25T04:07:38.013Z,76.95
2016-07-25T04:08:37.990Z,76.95
2016-07-25T04:09:37.983Z,76.76
2016-07-25T04:10:37.966Z,76.57
2016-07-25T04:11:37.951Z,77.15
2016-07-25T04:12:37.939Z,76.95
2016-07-25T04:13:37.922Z,76.76
2016-07-25T04:14:37.906Z,76.57
2016-07-25T04:15:37.892Z,76.47
2016-07-25T04:16:37.874Z,76.57
2016-07-25T04:17:37.862Z,76.57
2016-07-25T04:18:37.844Z,77.05
2016-07-25T04:19:37.835Z,77.05
2016-07-25T04:20:37.813Z,76.76
2016-07-25T04:21:37.798Z,76.47
2016-07-25T04:22:37.080Z,76.86
2016-07-25T04:23:37.772Z,77.15
2016-07-25T04:24:37.759Z,77.34
2016-07-25T04:25:37.745Z,77.25
2016-07-25T04:26:37.724Z,77.53
2016-07-25T04:27:37.713Z,77.92
2016-07-25T04:28:37.696Z,78.17
2016-07-25T04:29:37.684Z,78.36
2016-07-25T04:30:37.666Z,78.31
2016-07-25T04:31:37.646Z,77.73
2016-07-25T04:32:37.633Z,77.63
2016-07-25T04:33:36.905Z,77.63
2016-07-25T04:34:37.603Z,77.53
2016-07-25T04:35:37.595Z,77.92
2016-07-25T04:36:37.576Z,78.02
2016-07-25T04:37:37.566Z,77.83
2016-07-25T04:38:37.539Z,78.02
2016-07-25T04:39:37.532Z,77.63
2016-07-25T04:40:37.514Z,77.34
2016-07-25T04:41:37.506Z,77.63
2016-07-25T04:42:37.485Z,78.11
2016-07-25T04:43:37.478Z,78.31
2016-07-25T04:44:37.453Z,78.5
2016-07-25T04:45:37.440Z,78.21
2016-07-25T04:46:37.428Z,78.41
2016-07-25T04:47:37.408Z,78.5
2016-07-25T04:48:37.396Z,77.83
2016-07-25T04:49:37.377Z,78.31
2016-07-25T04:50:37.363Z,78.59
2016-07-25T04:51:37.358Z,78.21
2016-07-25T04:52:37.331Z,78.21
2016-07-25T04:53:37.319Z,78.21
2016-07-25T04:54:37.306Z,78.11
2016-07-25T04:55:37.290Z,78.99
2016-07-25T04:56:37.274Z,78.41
2016-07-25T04:57:37.265Z,78.79
2016-07-25T04:58:37.249Z,78.79
2016-07-25T04:59:37.254Z,78.79
2016-07-25T05:00:37.217Z,78.59
2016-07-25T05:01:37.205Z,78.69
2016-07-25T05:02:37.183Z,79.08
2016-07-25T05:03:37.166Z,78.79
2016-07-25T05:04:37.148Z,78.79
2016-07-25T05:05:37.146Z,79.66
2016-07-25T05:06:37.124Z,79.47
2016-07-25T05:07:37.115Z,79.75
2016-07-25T05:08:37.097Z,79.08
2016-07-25T05:09:37.079Z,79.47
2016-07-25T05:10:37.065Z,79.85
2016-07-25T05:11:37.062Z,79.33
2016-07-25T05:12:37.034Z,79.75
2016-07-25T05:13:37.022Z,79.66
2016-07-25T05:14:37.004Z,79.56
2016-07-25T05:15:36.989Z,79.37
2016-07-25T05:16:36.976Z,79.47
2016-07-25T05:17:36.955Z,80.24
2016-07-25T05:18:36.236Z,80.1
2016-07-25T05:19:36.927Z,79.52
2016-07-25T05:20:36.917Z,79.47
2016-07-25T05:21:36.900Z,79.56
2016-07-25T05:22:36.887Z,79.47
2016-07-25T05:23:36.876Z,79.66
2016-07-25T05:24:36.853Z,79.66
2016-07-25T05:25:36.839Z,79.56
2016-07-25T05:26:36.824Z,79.47
2016-07-25T05:27:36.809Z,79.56
2016-07-25T05:28:36.086Z,79.47
2016-07-25T05:29:36.788Z,79.75
2016-07-25T05:30:36.764Z,79.56
2016-07-25T05:31:36.742Z,79.47
2016-07-25T05:32:36.731Z,79.95
2016-07-25T05:33:36.721Z,80.14
2016-07-25T05:34:36.706Z,80.24
2016-07-25T05:35:36.686Z,80.14
2016-07-25T05:36:36.670Z,79.66
2016-07-25T05:37:36.657Z,79.66
2016-07-25T05:38:35.931Z,79.56
2016-07-25T05:39:36.628Z,80.33
2016-07-25T05:40:36.612Z,80.24
2016-07-25T05:41:36.596Z,79.95
2016-07-25T05:42:36.583Z,79.75
2016-07-25T05:43:36.566Z,79.37
2016-07-25T05:44:35.856Z,78.79
2016-07-25T05:45:36.539Z,79.66
2016-07-25T05:46:36.522Z,79.85
2016-07-25T05:47:36.507Z,79.95
2016-07-25T05:48:36.498Z,80.24
2016-07-25T05:49:36.482Z,80.24
2016-07-25T05:50:36.466Z,79.85
2016-07-25T05:51:36.455Z,80.05
2016-07-25T05:52:36.439Z,79.27
2016-07-25T05:53:36.421Z,79.37
2016-07-25T05:54:36.401Z,79.95
2016-07-25T05:55:36.386Z,79.95
2016-07-25T05:56:36.370Z,79.85
2016-07-25T05:57:36.357Z,79.95
2016-07-25T05:58:36.342Z,79.37
2016-07-25T05:59:36.322Z,79.66
2016-07-25T06:00:35.604Z,79.47
2016-07-25T06:01:35.580Z,80.24
2016-07-25T06:02:36.288Z,80.14
2016-07-25T06:03:36.274Z,80.24
2016-07-25T06:04:36.256Z,80.14
2016-07-25T06:05:36.237Z,80.33
2016-07-25T06:06:36.221Z,80.24
2016-07-25T06:07:36.212Z,80.33
2016-07-25T06:08:36.192Z,80.43
2016-07-25T06:09:36.185Z,80.33
2016-07-25T06:10:36.166Z,80.43
2016-07-25T06:11:36.150Z,80.33
2016-07-25T06:12:35.468Z,80.43
2016-07-25T06:13:36.119Z,80.33
2016-07-25T06:14:36.115Z,80.43
2016-07-25T06:15:36.083Z,80.24
2016-07-25T06:16:36.068Z,80.24
2016-07-25T06:17:36.054Z,80.33
2016-07-25T06:18:35.335Z,79.95
2016-07-25T06:19:36.026Z,79.95
2016-07-25T06:20:36.012Z,79.95
2016-07-25T06:21:35.288Z,79.75
2016-07-25T06:22:35.982Z,79.85
2016-07-25T06:23:35.969Z,79.85
2016-07-25T06:24:35.951Z,79.56
2016-07-25T06:25:35.933Z,79.37
2016-07-25T06:26:35.921Z,79.22
2016-07-25T06:27:35.906Z,79.5
2016-07-25T06:28:35.889Z,79.7
2016-07-25T06:29:35.878Z,79.31
2016-07-25T06:30:35.861Z,78.64
2016-07-25T06:31:35.846Z,78.89
2016-07-25T06:32:35.831Z,79.02
2016-07-25T06:33:35.813Z,79.12
2016-07-25T06:34:35.798Z,78.92
2016-07-25T06:36:35.770Z,79.02
2016-07-25T06:37:35.046Z,78.83
2016-07-25T06:38:35.743Z,78.54
2016-07-25T06:39:35.722Z,79.02
2016-07-25T06:40:35.709Z,78.83
2016-07-25T06:41:35.695Z,79.12
2016-07-25T06:42:35.675Z,79.12
2016-07-25T06:43:35.666Z,78.25
2016-07-25T06:44:35.650Z,78.15
2016-07-25T06:45:35.633Z,78.54
2016-07-25T06:46:35.622Z,78.54
2016-07-25T06:47:35.607Z,78.34
2016-07-25T06:48:35.588Z,77.96
2016-07-25T06:49:35.573Z,77.76
2016-07-25T06:50:35.565Z,78.15
2016-07-25T06:51:35.555Z,77.38
2016-07-25T06:52:34.812Z,77.57
2016-07-25T06:53:35.511Z,77.57
2016-07-25T06:54:34.798Z,77
2016-07-25T06:55:35.489Z,77.28
2016-07-25T06:56:35.471Z,77.38
2016-07-25T06:57:35.459Z,77.28
2016-07-25T06:58:35.447Z,76.7
2016-07-25T06:59:35.425Z,76.22
2016-07-25T07:00:35.408Z,76.22
2016-07-25T07:01:35.395Z,76.12
2016-07-25T07:02:35.385Z,75.93
2016-07-25T07:03:35.369Z,75.84
2016-07-25T07:04:35.352Z,76.03
2016-07-25T07:05:35.335Z,76.12
2016-07-25T07:06:35.340Z,76.32
2016-07-25T07:07:35.296Z,75.84
2016-07-25T07:08:35.290Z,76.22
2016-07-25T07:09:35.278Z,75.93
2016-07-25T07:10:35.254Z,75.84
2016-07-25T07:11:34.532Z,75.84
2016-07-25T07:12:35.228Z,76.03
2016-07-25T07:13:35.212Z,76.12
2016-07-25T07:14:35.200Z,76.26
2016-07-25T07:15:35.187Z,76.06
2016-07-25T07:16:35.168Z,76.06
2016-07-25T07:17:35.154Z,76.35
2016-07-25T07:18:35.139Z,76.35
2016-07-25T07:19:35.122Z,75.48
2016-07-25T07:20:35.116Z,75.58
2016-07-25T07:21:35.094Z,75.1
2016-07-25T07:22:35.081Z,74.9
2016-07-25T07:23:35.071Z,75.2
2016-07-25T07:24:35.050Z,75.16
2016-07-25T07:25:35.032Z,75.26
2016-07-25T07:26:35.021Z,75.06
2016-07-25T07:27:35.006Z,74.81
2016-07-25T07:28:34.990Z,74.23
2016-07-25T07:29:34.975Z,74.23
2016-07-25T07:30:34.965Z,74.71
2016-07-25T07:31:34.942Z,74.04
2016-07-25T07:32:34.928Z,73.84
2016-07-25T07:33:34.918Z,74.04
2016-07-25T07:34:34.200Z,74.04
2016-07-25T07:35:34.887Z,73.74
2016-07-25T07:36:34.876Z,73.74
2016-07-25T07:37:34.856Z,73.55
2016-07-25T07:38:34.834Z,73.07
2016-07-25T07:39:34.826Z,73.26
2016-07-25T07:40:34.818Z,73.16
2016-07-25T07:41:34.091Z,73.16
2016-07-25T07:42:34.789Z,73.26
2016-07-25T07:43:34.768Z,71.84
2016-07-25T07:44:34.761Z,70.68
2016-07-25T07:45:34.735Z,70.98
2016-07-25T07:46:34.727Z,71.46
2016-07-25T07:47:34.706Z,71.66
2016-07-25T07:48:34.691Z,72.81
2016-07-25T07:49:34.681Z,72.62
2016-07-25T07:50:34.663Z,72.62
2016-07-25T07:51:34.651Z,72.72
2016-07-25T07:52:34.631Z,72.91
2016-07-25T07:53:34.617Z,72.62
2016-07-25T07:54:34.606Z,72.81
2016-07-25T07:55:33.887Z,72.81
2016-07-25T07:56:34.590Z,72.81
2016-07-25T07:57:34.563Z,73.49
2016-07-25T07:59:34.534Z,73.33
2016-07-25T08:00:34.514Z,73.43
2016-07-25T08:01:34.541Z,73.72
2016-07-25T08:02:34.511Z,73.63
2016-07-25T08:03:34.470Z,73.63
2016-07-25T08:04:34.468Z,74.3
2016-07-25T08:05:34.446Z,74.3
2016-07-25T08:06:34.438Z,74.3
2016-07-25T08:07:34.413Z,74.11
2016-07-25T08:08:34.402Z,74.11
2016-07-25T08:09:34.381Z,73.82
2016-07-25T08:10:34.372Z,74.21
2016-07-25T08:11:34.362Z,73.43
2016-07-25T08:12:34.342Z,72.17
2016-07-25T08:13:34.345Z,71.01
2016-07-25T08:14:34.313Z,72.95
2016-07-25T08:15:34.299Z,72.85
2016-07-25T08:16:34.284Z,73.24
2016-07-25T08:17:34.269Z,73.04
2016-07-25T08:18:34.255Z,73.43
2016-07-25T08:19:34.236Z,72.46
2016-07-25T08:20:34.229Z,72.56
2016-07-25T08:21:34.208Z,72.85
2016-07-25T08:22:34.197Z,72.56
2016-07-25T08:23:34.182Z,72.85
2016-07-25T08:24:34.182Z,72.27
2016-07-25T08:25:34.150Z,71.4
2016-07-25T08:26:34.139Z,70.53
2016-07-25T08:27:34.127Z,70.82
2016-07-25T08:28:34.115Z,70.82
2016-07-25T08:29:33.379Z,70.62
2016-07-25T08:30:34.078Z,70.92
2016-07-25T08:31:34.068Z,70.62
2016-07-25T08:32:34.048Z,71.4
2016-07-25T08:33:34.042Z,71.4
2016-07-25T08:34:34.018Z,71.69
2016-07-25T08:35:34.008Z,71.5
2016-07-25T08:36:33.993Z,70.82
2016-07-25T08:37:33.268Z,71.4
2016-07-25T08:38:33.962Z,71.3
2016-07-25T08:39:33.946Z,71.4
2016-07-25T08:40:33.227Z,71.11
2016-07-25T08:41:33.919Z,71.01
2016-07-25T08:42:33.906Z,70.62
2016-07-25T08:43:33.894Z,70.72
2016-07-25T08:44:33.881Z,71.11
2016-07-25T08:45:33.864Z,70.53
2016-07-25T08:46:33.853Z,71.01
2016-07-25T08:47:33.836Z,70.53
2016-07-25T08:48:33.825Z,70.82
2016-07-25T08:49:33.805Z,70.62
2016-07-25T08:50:33.801Z,69.95
2016-07-25T08:51:33.774Z,69.46
2016-07-25T08:52:33.761Z,69.17
2016-07-25T08:53:33.750Z,69.08
2016-07-25T08:54:33.737Z,70.04
2016-07-25T08:55:33.717Z,69.08
2016-07-25T08:56:33.704Z,70.08
2016-07-25T08:57:33.689Z,70.08
2016-07-25T08:58:33.668Z,69.56
2016-07-25T08:59:33.655Z,68.33
2016-07-25T09:00:33.639Z,68.24
2016-07-25T09:01:33.630Z,69.01
2016-07-25T09:02:33.620Z,69.11
2016-07-25T09:03:33.608Z,68.73
2016-07-25T09:04:33.587Z,68.73
2016-07-25T09:05:33.575Z,68.15
2016-07-25T09:06:33.561Z,68.43
2016-07-25T09:07:33.550Z,67.95
2016-07-25T09:08:33.530Z,67.76
2016-07-25T09:09:33.514Z,68.05
2016-07-25T09:10:32.805Z,68.05
2016-07-25T09:11:33.495Z,68.15
2016-07-25T09:12:33.476Z,67.37
2016-07-25T09:13:33.457Z,68.05
2016-07-25T09:14:33.443Z,67.95
2016-07-25T09:15:33.433Z,68.24
2016-07-25T09:16:32.705Z,68.15
2016-07-25T09:17:33.407Z,68.43
2016-07-25T09:18:33.391Z,68.24
2016-07-25T09:19:33.374Z,67.85
2016-07-25T09:20:33.367Z,67.56
2016-07-25T09:21:33.342Z,67.37
2016-07-25T09:22:33.331Z,67.76
2016-07-25T09:23:33.313Z,67.56
2016-07-25T09:24:33.308Z,66.78
2016-07-25T09:25:33.284Z,66.78
2016-07-25T09:26:32.563Z,66.88
2016-07-25T09:27:33.259Z,66.78
2016-07-25T09:28:33.249Z,67.27
2016-07-25T09:29:33.238Z,67.37
2016-07-25T09:30:33.213Z,67.63
2016-07-25T09:31:33.202Z,67.27
2016-07-25T09:32:32.487Z,67.66
2016-07-25T09:33:33.177Z,67.85
2016-07-25T09:34:33.158Z,68.05
2016-07-25T09:35:33.147Z,67.95
2016-07-25T09:36:33.135Z,68.05
2016-07-25T09:37:33.120Z,67.66
2016-07-25T09:38:33.105Z,67.76
2016-07-25T09:39:33.088Z,67.66
2016-07-25T09:40:33.071Z,67.85
2016-07-25T09:41:33.058Z,67.37
2016-07-25T09:42:33.044Z,67.27
2016-07-25T09:43:33.032Z,67.27
2016-07-25T09:44:33.020Z,67.95
2016-07-25T09:45:33.005Z,67.27
2016-07-25T09:46:32.989Z,67.18
2016-07-25T09:47:32.975Z,67.08
2016-07-25T09:48:32.957Z,66.78
2016-07-25T09:49:32.946Z,67.27
2016-07-25T09:50:32.928Z,67.46
2016-07-25T09:51:32.919Z,66.69
2016-07-25T09:52:32.908Z,66.78
2016-07-25T09:53:32.889Z,66.69
2016-07-25T09:54:32.878Z,67.08
2016-07-25T09:55:32.865Z,66.88
2016-07-25T09:56:32.864Z,66.69
2016-07-25T09:57:32.837Z,67.27
2016-07-25T09:58:32.818Z,66.88
2016-07-25T09:59:32.804Z,66.98
2016-07-25T10:00:32.796Z,66.88
2016-07-25T10:01:32.777Z,66.5
2016-07-25T10:02:32.764Z,66.78
2016-07-25T10:03:32.751Z,66.6
2016-07-25T10:04:32.736Z,66.11
2016-07-25T10:05:32.722Z,66.5
2016-07-25T10:06:32.709Z,66.6
2016-07-25T10:07:32.692Z,66.4
2016-07-25T10:08:32.677Z,66.4
2016-07-25T10:09:31.952Z,66.5
2016-07-25T10:10:32.645Z,66.2
2016-07-25T10:11:32.642Z,66.5
2016-07-25T10:12:32.631Z,66.4
2016-07-25T10:13:32.609Z,66.43
2016-07-25T10:14:32.596Z,66.4
2016-07-25T10:15:32.582Z,66.5
2016-07-25T10:16:32.568Z,66.4
2016-07-25T10:17:32.567Z,66.4
2016-07-25T10:18:32.539Z,66.11
2016-07-25T10:19:32.519Z,66.6
2016-07-25T10:20:31.793Z,66.2
2016-07-25T10:21:32.495Z,66.5
2016-07-25T10:22:32.484Z,66.02
2016-07-25T10:23:32.466Z,66.6
2016-07-25T10:24:32.491Z,66.11
2016-07-25T10:25:32.437Z,66.11
2016-07-25T10:26:32.421Z,66.3
2016-07-25T10:27:31.699Z,66.14
2016-07-25T10:28:32.404Z,66.34
2016-07-25T10:29:32.381Z,66.4
2016-07-25T10:30:32.367Z,66.11
2016-07-25T10:31:32.357Z,66.4
2016-07-25T10:32:32.340Z,66.34
2016-07-25T10:33:32.329Z,66.5
2016-07-25T10:34:32.311Z,66.2
2016-07-25T10:35:32.301Z,66.43
2016-07-25T10:36:32.281Z,65.92
2016-07-25T10:37:32.270Z,66.5
2016-07-25T10:38:31.542Z,66.05
2016-07-25T10:39:32.244Z,65.95
2016-07-25T10:40:32.227Z,65.95
2016-07-25T10:41:32.216Z,66.14
2016-07-25T10:42:32.199Z,65.66
2016-07-25T10:43:32.189Z,65.75
2016-07-25T10:44:32.170Z,66.05
2016-07-25T10:45:32.163Z,65.85
2016-07-25T10:46:32.147Z,66.14
2016-07-25T10:47:32.129Z,65.92
2016-07-25T10:48:32.116Z,65.85
2016-07-25T10:49:32.098Z,65.27
2016-07-25T10:50:32.088Z,65.47
2016-07-25T10:51:32.076Z,65.66
2016-07-25T10:52:32.062Z,65.56
2016-07-25T10:53:32.044Z,65.47
2016-07-25T10:54:32.029Z,65.27
2016-07-25T10:55:32.034Z,65.66
2016-07-25T10:56:32.005Z,65.47
2016-07-25T10:57:31.987Z,65.27
2016-07-25T10:58:31.975Z,65.75
2016-07-25T10:59:31.967Z,65.47
2016-07-25T11:00:31.945Z,65.37
2016-07-25T11:01:31.945Z,65.56
2016-07-25T11:02:31.917Z,65.37
2016-07-25T11:03:31.904Z,65.95
2016-07-25T11:04:31.932Z,66.14
2016-07-25T11:05:31.899Z,65.47
2016-07-25T11:06:31.859Z,65.56
2016-07-25T11:07:31.852Z,65.75
2016-07-25T11:08:31.140Z,65.17
2016-07-25T11:09:31.112Z,65.47
2016-07-25T11:10:31.812Z,65.27
2016-07-25T11:11:31.792Z,65.17
2016-07-25T11:12:31.784Z,65.17
2016-07-25T11:13:31.771Z,64.98
2016-07-25T11:14:31.751Z,65.47
2016-07-25T11:15:31.732Z,65.75
2016-07-25T11:16:31.729Z,65.47
2016-07-25T11:17:31.711Z,65.95
2016-07-25T11:18:31.699Z,65.27
2016-07-25T11:19:31.689Z,65.47
2016-07-25T11:20:31.670Z,65.66
2016-07-25T11:21:31.655Z,65.66
2016-07-25T11:22:31.645Z,65.56
2016-07-25T11:23:31.629Z,65.17
2016-07-25T11:24:31.613Z,65.75
2016-07-25T11:25:31.600Z,65.47
2016-07-25T11:26:31.587Z,65.08
2016-07-25T11:27:31.581Z,65.75
2016-07-25T11:28:31.559Z,65.75
2016-07-25T11:29:31.541Z,65.37
2016-07-25T11:30:31.530Z,65.37
2016-07-25T11:31:31.513Z,65.17
2016-07-25T11:32:31.497Z,65.47
2016-07-25T11:33:31.492Z,65.37
2016-07-25T11:34:31.472Z,65.47
2016-07-25T11:35:31.471Z,65.17
2016-07-25T11:36:31.447Z,65.66
2016-07-25T11:37:30.722Z,65.08
2016-07-25T11:38:31.415Z,65.37
2016-07-25T11:39:31.409Z,65.56
2016-07-25T11:40:31.398Z,64.98
2016-07-25T11:41:31.376Z,64.98
2016-07-25T11:42:30.652Z,65.17
2016-07-25T11:43:31.357Z,64.98
2016-07-25T11:44:31.333Z,65.56
2016-07-25T11:45:31.321Z,64.98
2016-07-25T11:46:31.302Z,65.17
2016-07-25T11:47:31.292Z,65.17
2016-07-25T11:48:31.282Z,65.75
2016-07-25T11:49:31.265Z,64.89
2016-07-25T11:50:31.254Z,64.89
2016-07-25T11:51:31.236Z,64.98
2016-07-25T11:52:31.219Z,65.17
2016-07-25T11:53:31.211Z,64.98
2016-07-25T11:54:30.488Z,65.17
2016-07-25T11:55:31.181Z,65.08
2016-07-25T11:56:31.171Z,65.17
2016-07-25T11:57:30.459Z,64.79
2016-07-25T11:58:31.145Z,64.59
2016-07-25T11:59:31.123Z,64.5
2016-07-25T12:00:31.125Z,64.59
2016-07-25T12:01:31.102Z,64.5
2016-07-25T12:02:31.088Z,64.5
2016-07-25T12:03:30.389Z,64.69
2016-07-25T12:04:31.060Z,64.69
2016-07-25T12:05:31.052Z,64.59
2016-07-25T12:06:31.037Z,64.69
2016-07-25T12:07:31.018Z,64.79
2016-07-25T12:08:31.010Z,64.59
2016-07-25T12:09:30.989Z,64.59
2016-07-25T12:10:30.976Z,64.59
2016-07-25T12:11:30.976Z,64.89
2016-07-25T12:12:30.255Z,64.69
2016-07-25T12:13:30.932Z,64.89
2016-07-25T12:14:30.929Z,64.3
2016-07-25T12:15:30.910Z,64.79
2016-07-25T12:16:30.901Z,64.79
2016-07-25T12:17:30.886Z,64.79
2016-07-25T12:18:30.864Z,64.59
2016-07-25T12:19:30.853Z,64.69
2016-07-25T12:20:30.838Z,64.59
2016-07-25T12:21:30.827Z,64.79
2016-07-25T12:22:30.815Z,64.5
2016-07-25T12:23:30.802Z,64.69
2016-07-25T12:24:30.783Z,64.59
2016-07-25T12:25:30.065Z,64.69
2016-07-25T12:26:30.763Z,64.59
2016-07-25T12:27:30.745Z,64.59
2016-07-25T12:28:30.728Z,64.98
2016-07-25T12:29:30.722Z,64.3
2016-07-25T12:30:30.698Z,64.4
2016-07-25T12:31:30.687Z,64.2
2016-07-25T12:32:30.673Z,64.59
2016-07-25T12:33:30.660Z,64.69
2016-07-25T12:34:30.649Z,64.59
2016-07-25T12:35:30.635Z,64.5
2016-07-25T12:36:30.632Z,64.5
2016-07-25T12:37:30.605Z,64.5
2016-07-25T12:38:30.595Z,64.59
2016-07-25T12:39:30.578Z,64.5
2016-07-25T12:40:30.559Z,64.4
2016-07-25T12:41:30.547Z,64.5
2016-07-25T12:42:29.828Z,64.79
2016-07-25T12:43:30.532Z,64.89
2016-07-25T12:44:30.512Z,64.69
2016-07-25T12:45:30.495Z,64.69
2016-07-25T12:46:30.484Z,64.69
2016-07-25T12:47:30.461Z,64.59
2016-07-25T12:48:30.456Z,64.79
2016-07-25T12:49:29.736Z,64.59
2016-07-25T12:50:30.429Z,64.5
2016-07-25T12:51:30.426Z,64.11
2016-07-25T12:52:30.401Z,64.59
2016-07-25T12:53:30.385Z,63.72
2016-07-25T12:54:30.370Z,63.82
2016-07-25T12:55:30.363Z,63.92
2016-07-25T12:56:30.352Z,64.01
2016-07-25T12:57:30.328Z,64.11
2016-07-25T12:58:30.317Z,63.62
2016-07-25T12:59:30.304Z,64.11